Time;durP1;ratioP1;P1;durP2;ratioP2;P2;SDS_P1;SDS_P2;PMS_P1;PMS_P2;Temp;Humidity;BMP_temperature;BMP_pressure;BME280_temperature;BME280_humidity;BME280_pressure;Samples;Min_cycle;Max_cycle;Signal;HPM_P1;HPM_P2
2022/09/20 00:00:39;;;;;;;;;;;;;;;18.74;51.80;100924.05;2313059;75;52508;-75
2022/09/20 00:03:41;;;;;;;;;;;;;;;18.72;51.79;100919.69;2328678;75;51545;-75
2022/09/20 00:06:43;;;;;;;;;;;;;;;18.73;51.77;100925.91;2347153;74;50124;-75
2022/09/20 00:09:44;;;;;;;;;;;;;;;18.71;51.80;100933.29;2332576;75;50109;-75
2022/09/20 00:12:46;;;;;;;;;;;;;;;18.71;51.78;100926.58;2272967;76;50077;-75
2022/09/20 00:15:47;;;;;;;;;;;;;;;18.70;51.80;100922.22;2336410;76;51386;-75
2022/09/20 00:18:49;;;;;;;;;;;;;;;18.71;51.76;100933.29;2336767;76;51532;-75
2022/09/20 00:21:51;;;;;;;;;;;;;;;18.70;51.77;100923.55;2336598;75;50665;-77
2022/09/20 00:24:52;;;;;;;;;;;;;;;18.70;51.77;100927.58;2310644;76;52654;-77
2022/09/20 00:27:54;;;;;;;;;;;;;;;18.69;51.79;100932.63;2336927;75;51437;-77
2022/09/20 00:30:56;;;;;;;;;;;;;;;18.69;51.75;100932.63;2336799;75;51513;-77
2022/09/20 00:37:17;;;;;;;;;;;;;;;18.69;51.73;100936.64;2302992;75;22418;-77
2022/09/20 00:40:22;;;;;;;;;;;;;;;18.71;51.67;100937.31;2297591;75;51483;-76
2022/09/20 00:43:37;;;;;;;;;;;;;;;18.69;51.67;100940.66;2358606;73;50278;-76
2022/09/20 00:46:40;;;;;;;;;;;;;;;18.68;51.74;100941.69;2415935;73;51506;-77
2022/09/20 00:49:41;;;;;;;;;;;;;;;18.67;51.71;100943.51;2389589;73;51341;-77
2022/09/20 00:52:44;;;;;;;;;;;;;;;18.66;51.72;100938.34;2416064;73;50451;-77
2022/09/20 00:55:47;;;;;;;;;;;;;;;18.66;51.70;100937.00;2415979;73;50698;-77
2022/09/20 00:58:50;;;;;;;;;;;;;;;18.65;51.72;100939.34;2416171;73;50122;-77
2022/09/20 01:01:53;;;;;;;;;;;;;;;18.64;51.73;100939.02;2390269;73;52851;-77
2022/09/20 01:04:56;;;;;;;;;;;;;;;18.65;51.71;100937.99;2416030;73;50772;-77
2022/09/20 01:07:58;;;;;;;;;;;;;;;18.64;51.68;100938.50;2377405;73;51580;-76
2022/09/20 01:10:59;;;;;;;;;;;;;;;18.65;51.66;100936.66;2304526;75;51537;-77
2022/09/20 01:14:01;;;;;;;;;;;;;;;18.65;51.63;100942.02;2288197;76;52431;-77
2022/09/20 01:17:03;;;;;;;;;;;;;;;18.63;51.69;100938.19;2351936;75;50770;-77
2022/09/20 01:20:06;;;;;;;;;;;;;;;18.63;51.68;100939.53;2357727;75;51498;-77
2022/09/20 01:23:28;;;;;;;;;;;;;;;18.63;51.65;100944.06;2318339;75;50511;-77
2022/09/20 01:26:37;;;;;;;;;;;;;;;18.63;51.57;100935.51;2288472;77;50786;-77
2022/09/20 01:29:52;;;;;;;;;;;;;;;18.63;51.58;100940.87;2274458;75;52522;-77
2022/09/20 01:33:02;;;;;;;;;;;;;;;18.62;51.62;100935.67;2327690;75;51422;-77
2022/09/20 01:36:04;;;;;;;;;;;;;;;18.62;51.59;100937.84;2375764;73;51592;-77
2022/09/20 01:39:07;;;;;;;;;;;;;;;18.60;51.65;100938.55;2323734;75;50414;-76
2022/09/20 01:42:09;;;;;;;;;;;;;;;18.63;51.53;100938.70;2304421;76;50532;-77
2022/09/20 01:45:12;;;;;;;;;;;;;;;18.59;51.88;100946.75;2333678;76;50844;-76
2022/09/20 01:48:18;;;;;;;;;;;;;;;18.57;52.17;100942.89;2337017;75;50426;-77
2022/09/20 01:51:34;;;;;;;;;;;;;;;18.50;52.36;100939.27;2337119;75;51594;-77
2022/09/20 01:54:56;;;;;;;;;;;;;;;18.47;52.47;100943.14;2324506;76;51950;-77
2022/09/20 01:58:13;;;;;;;;;;;;;;;18.48;52.52;100947.98;2366355;73;22384;-77
2022/09/20 02:01:22;;;;;;;;;;;;;;;18.46;52.62;100952.16;2318004;76;50439;-77
2022/09/20 02:04:28;;;;;;;;;;;;;;;18.47;52.79;100954.33;2317018;76;50780;-76
2022/09/20 02:07:51;;;;;;;;;;;;;;;18.46;52.80;100962.88;2294729;75;52649;-76
2022/09/20 02:10:54;;;;;;;;;;;;;;;18.45;52.85;100952.36;2333125;74;51636;-76
2022/09/20 02:13:57;;;;;;;;;;;;;;;18.45;52.94;100957.20;2350460;75;50400;-76
2022/09/20 02:17:17;;;;;;;;;;;;;;;18.46;52.94;100957.52;2317893;76;50681;-76
2022/09/20 02:20:32;;;;;;;;;;;;;;;18.48;52.76;100958.19;2319688;76;49611;-76
2022/09/20 02:23:42;;;;;;;;;;;;;;;18.53;52.66;100959.52;2317561;76;50431;-76
2022/09/20 02:27:03;;;;;;;;;;;;;;;18.52;52.69;100964.53;2317699;76;51465;-77
2022/09/20 02:30:25;;;;;;;;;;;;;;;18.48;52.86;100963.55;2317846;76;51676;-76
2022/09/20 02:33:37;;;;;;;;;;;;;;;18.49;52.90;100965.20;2317672;73;51850;-76
2022/09/20 02:36:43;;;;;;;;;;;;;;;18.49;52.91;100968.40;2336724;75;51323;-76
2022/09/20 02:39:47;;;;;;;;;;;;;;;18.49;52.83;100974.58;2336898;76;51538;-76
2022/09/20 02:42:53;;;;;;;;;;;;;;;18.46;53.00;100972.77;2353390;73;50411;-77
2022/09/20 02:45:57;;;;;;;;;;;;;;;18.47;53.05;100977.97;2306729;74;49606;-76
2022/09/20 02:49:03;;;;;;;;;;;;;;;18.48;53.09;100980.14;2346258;75;51382;-77
2022/09/20 02:52:06;;;;;;;;;;;;;;;18.46;53.08;100980.30;2346036;75;50787;-77
2022/09/20 02:55:09;;;;;;;;;;;;;;;18.45;53.19;100979.98;2352545;75;50839;-77
2022/09/20 02:58:21;;;;;;;;;;;;;;;18.44;53.21;100976.95;2333667;75;50138;-76
2022/09/20 03:01:27;;;;;;;;;;;;;;;18.45;53.25;100971.94;2358397;75;51607;-78
2022/09/20 03:04:31;;;;;;;;;;;;;;;18.44;53.30;100975.61;2358306;75;50416;-78
2022/09/20 03:07:52;;;;;;;;;;;;;;;18.44;53.22;100978.30;2359223;75;50505;-78
2022/09/20 03:10:58;;;;;;;;;;;;;;;18.47;53.09;100979.79;2336894;74;52644;-78
2022/09/20 03:14:08;;;;;;;;;;;;;;;18.48;53.29;100980.97;2359687;74;50846;-77
2022/09/20 03:17:14;;;;;;;;;;;;;;;18.49;53.14;100983.13;2359095;74;51505;-77
2022/09/20 03:20:35;;;;;;;;;;;;;;;18.50;53.17;100993.69;2358195;75;51729;-76
2022/09/20 03:23:51;;;;;;;;;;;;;;;18.45;53.47;100992.55;2327303;75;49803;-77
2022/09/20 03:26:54;;;;;;;;;;;;;;;18.45;53.54;100988.02;2294381;75;50883;-77
2022/09/20 03:30:14;;;;;;;;;;;;;;;18.46;53.30;100986.17;2342608;73;50767;-77
2022/09/20 03:33:14;;;;;;;;;;;;;;;18.44;53.44;100989.01;2351486;75;22750;-77
2022/09/20 03:36:17;;;;;;;;;;;;;;;18.42;53.56;100995.55;2329648;74;52625;-77
2022/09/20 03:39:27;;;;;;;;;;;;;;;18.44;53.54;100995.70;2293188;76;51355;-77
2022/09/20 03:42:28;;;;;;;;;;;;;;;18.44;53.63;100996.22;2289987;77;50480;-78
2022/09/20 03:45:35;;;;;;;;;;;;;;;18.44;53.50;101002.41;2305831;77;51433;-77
2022/09/20 03:48:47;;;;;;;;;;;;;;;18.43;53.50;101003.43;2282209;77;50334;-78
2022/09/20 03:52:06;;;;;;;;;;;;;;;18.43;53.59;101000.75;2306128;77;50375;-77
2022/09/20 03:55:26;;;;;;;;;;;;;;;18.42;53.59;101000.43;2323578;75;50907;-78
2022/09/20 03:58:42;;;;;;;;;;;;;;;18.42;53.63;101004.45;2330988;75;51584;-78
2022/09/20 04:01:45;;;;;;;;;;;;;;;18.42;53.65;100999.57;2332781;75;49423;-78
2022/09/20 04:04:48;;;;;;;;;;;;;;;18.43;53.58;101003.43;2356110;75;50452;-77
2022/09/20 04:08:07;;;;;;;;;;;;;;;18.43;53.67;101003.43;2357930;75;52277;-78
2022/09/20 04:11:27;;;;;;;;;;;;;;;18.42;53.65;101007.61;2346971;75;51559;-77
2022/09/20 04:14:43;;;;;;;;;;;;;;;18.41;53.69;101004.09;2326931;75;50191;-77
2022/09/20 04:17:46;;;;;;;;;;;;;;;18.41;53.70;101016.16;2313431;77;50033;-77
2022/09/20 04:20:50;;;;;;;;;;;;;;;18.42;53.62;101013.83;2313392;75;51505;-77
2022/09/20 04:24:02;;;;;;;;;;;;;;;18.41;53.66;101016.16;2303927;76;51595;-77
2022/09/20 04:27:05;;;;;;;;;;;;;;;18.41;53.67;101022.85;2287741;77;52449;-78
2022/09/20 04:30:21;;;;;;;;;;;;;;;18.42;53.70;101015.64;2313598;77;50376;-77
2022/09/20 04:33:20;;;;;;;;;;;;;;;18.41;53.72;101018.83;2312231;77;23197;-78
2022/09/20 04:36:32;;;;;;;;;;;;;;;18.46;53.64;101012.45;2313505;77;50417;-78
2022/09/20 04:39:35;;;;;;;;;;;;;;;18.51;53.62;101015.95;2313733;77;52351;-80
2022/09/20 04:42:38;;;;;;;;;;;;;;;18.56;53.65;101022.97;2298841;76;50854;-78
2022/09/20 04:45:58;;;;;;;;;;;;;;;18.48;54.00;101020.33;2329937;76;49946;-78
2022/09/20 04:49:02;;;;;;;;;;;;;;;18.54;53.84;101019.63;2330244;75;50674;-79
2022/09/20 04:52:17;;;;;;;;;;;;;;;18.48;53.87;101017.14;2330378;75;50516;-79
2022/09/20 04:55:20;;;;;;;;;;;;;;;18.48;53.73;101025.18;2337037;75;50943;-78
2022/09/20 04:58:35;;;;;;;;;;;;;;;18.48;53.56;101018.48;2337489;75;51570;-78
2022/09/20 05:01:39;;;;;;;;;;;;;;;18.43;53.82;101026.20;2337980;76;52372;-79
2022/09/20 05:04:52;;;;;;;;;;;;;;;18.46;53.64;101024.51;2351474;74;52486;-78
2022/09/20 05:07:59;;;;;;;;;;;;;;;18.46;54.80;101023.17;2338314;76;50723;-79
2022/09/20 05:11:03;;;;;;;;;;;;;;;18.53;54.73;101032.70;2339248;75;50085;-78
2022/09/20 05:14:07;;;;;;;;;;;;;;;18.52;54.84;101048.44;2336779;74;51588;-77
2022/09/20 05:17:16;;;;;;;;;;;;;;;18.48;55.35;101041.77;2330559;75;49989;-78
2022/09/20 05:20:36;;;;;;;;;;;;;;;18.49;55.32;101044.25;2355671;75;50717;-78
2022/09/20 05:23:57;;;;;;;;;;;;;;;18.55;54.76;101053.95;2355682;75;50473;-78
2022/09/20 05:27:18;;;;;;;;;;;;;;;18.50;55.49;101051.30;2355635;75;51489;-77
2022/09/20 05:30:38;;;;;;;;;;;;;;;18.49;54.96;101055.48;2330461;75;50140;-77
2022/09/20 05:33:50;;;;;;;;;;;;;;;18.52;54.50;101063.17;2359548;75;50330;-78
2022/09/20 05:36:56;;;;;;;;;;;;;;;18.53;54.52;101062.19;2360419;75;52579;-77
2022/09/20 05:39:59;;;;;;;;;;;;;;;18.59;54.36;101067.35;2380463;73;50231;-77
2022/09/20 05:43:15;;;;;;;;;;;;;;;18.57;55.47;101067.51;2310972;75;49577;-76
2022/09/20 05:46:18;;;;;;;;;;;;;;;18.62;55.29;101069.68;2357980;75;51422;-76
2022/09/20 05:49:38;;;;;;;;;;;;;;;18.61;54.65;101076.89;2357934;75;50389;-76
2022/09/20 05:52:50;;;;;;;;;;;;;;;18.61;55.66;101077.41;2357993;75;50397;-77
2022/09/20 05:55:59;;;;;;;;;;;;;;;18.59;55.73;101086.11;2332483;75;51075;-77
2022/09/20 05:59:03;;;;;;;;;;;;;;;18.61;55.48;101096.16;2341115;75;50167;-77
2022/09/20 06:02:22;;;;;;;;;;;;;;;18.67;55.58;101093.61;2358021;75;50416;-76
2022/09/20 06:05:34;;;;;;;;;;;;;;;18.80;54.78;101100.30;2357841;75;50437;-76
2022/09/20 06:08:50;;;;;;;;;;;;;;;18.85;54.60;101103.30;2314874;75;49652;-77
2022/09/20 06:12:08;;;;;;;;;;;;;;;18.95;54.21;101103.11;2332712;75;51645;-76
2022/09/20 06:15:20;;;;;;;;;;;;;;;18.97;54.14;101107.28;2357747;75;50803;-76
2022/09/20 06:18:30;;;;;;;;;;;;;;;18.95;54.02;101105.78;2334422;74;23072;-77
2022/09/20 06:21:33;;;;;;;;;;;;;;;19.01;54.10;101112.64;2317854;76;50702;-76
2022/09/20 06:24:39;;;;;;;;;;;;;;;19.00;53.91;101112.80;2317471;76;50552;-76
2022/09/20 06:27:51;;;;;;;;;;;;;;;19.04;53.86;101111.45;2292912;75;51668;-76
2022/09/20 06:30:53;;;;;;;;;;;;;;;19.02;53.97;101106.25;2317706;76;50314;-76
2022/09/20 06:33:57;;;;;;;;;;;;;;;18.98;53.91;101105.43;2319547;76;51074;-77
2022/09/20 06:43:53;;;;;;;;;;;;;;;19.01;53.92;101118.48;2326205;76;24530;-76
2022/09/20 06:46:55;;;;;;;;;;;;;;;19.00;53.91;101115.48;2299639;76;51008;-77
2022/09/20 06:49:57;;;;;;;;;;;;;;;18.98;53.84;101123.69;2326003;76;51534;-76
2022/09/20 06:52:59;;;;;;;;;;;;;;;18.99;53.81;101127.23;2325957;76;50276;-76
2022/09/20 06:56:01;;;;;;;;;;;;;;;19.00;53.80;101127.55;2325725;76;50735;-77
2022/09/20 06:59:03;;;;;;;;;;;;;;;18.96;53.73;101123.53;2299394;76;49594;-76
2022/09/20 07:02:04;;;;;;;;;;;;;;;18.94;53.82;101127.75;2325958;76;51376;-76
2022/09/20 07:05:10;;;;;;;;;;;;;;;18.98;53.62;101128.22;2325645;76;50346;-76
2022/09/20 07:08:10;;;;;;;;;;;;;;;18.93;53.75;101131.42;2325656;76;22303;-76
2022/09/20 07:11:14;;;;;;;;;;;;;;;18.93;53.73;101137.64;2322692;73;51053;-76
2022/09/20 07:14:16;;;;;;;;;;;;;;;18.92;53.77;101141.31;2416291;73;25289;-77
2022/09/20 07:17:17;;;;;;;;;;;;;;;18.92;53.74;101146.68;2416166;73;51446;-77
2022/09/20 07:20:19;;;;;;;;;;;;;;;18.92;53.68;101145.34;2416118;73;51425;-77
2022/09/20 07:23:21;;;;;;;;;;;;;;;18.89;53.75;101144.86;2387311;73;50131;-77
2022/09/20 07:26:25;;;;;;;;;;;;;;;18.90;53.72;101148.69;2416790;73;51531;-75
2022/09/20 07:29:27;;;;;;;;;;;;;;;18.93;53.76;101152.39;2337412;73;50299;-75
2022/09/20 07:32:29;;;;;;;;;;;;;;;18.88;53.85;101155.23;2288639;76;51511;-75
2022/09/20 07:35:30;;;;;;;;;;;;;;;18.89;53.78;101156.42;2271127;75;51656;-76
2022/09/20 07:38:32;;;;;;;;;;;;;;;18.92;53.65;101160.59;2301395;75;51490;-75
2022/09/20 07:41:33;;;;;;;;;;;;;;;18.89;53.83;101160.95;2305685;75;51353;-76
2022/09/20 07:44:35;;;;;;;;;;;;;;;18.92;53.99;101159.26;2333926;74;50308;-75
2022/09/20 07:47:40;;;;;;;;;;;;;;;18.97;53.80;101162.77;2296049;74;51241;-74
2022/09/20 07:50:40;;;;;;;;;;;;;;;19.01;53.73;101169.44;2358951;73;22390;-76
2022/09/20 07:53:41;;;;;;;;;;;;;;;18.98;53.83;101173.30;2357963;75;51546;-76
2022/09/20 07:56:43;;;;;;;;;;;;;;;19.02;53.80;101168.45;2357779;75;51550;-76
2022/09/20 07:59:45;;;;;;;;;;;;;;;19.04;53.67;101171.80;2327253;75;49631;-77
2022/09/20 08:02:46;;;;;;;;;;;;;;;19.05;53.55;101177.48;2355081;74;50736;-76
2022/09/20 08:05:49;;;;;;;;;;;;;;;19.06;53.42;101175.98;2354404;75;51461;-76
2022/09/20 08:08:51;;;;;;;;;;;;;;;19.05;53.40;101186.88;2317866;76;52688;-76
2022/09/20 08:11:55;;;;;;;;;;;;;;;19.05;53.37;101180.17;2298833;75;51149;-76
2022/09/20 08:14:56;;;;;;;;;;;;;;;19.03;53.32;101172.28;2344018;74;22275;-76
2022/09/20 08:17:57;;;;;;;;;;;;;;;19.04;53.23;101183.36;2329827;75;50418;-76
2022/09/20 08:21:05;;;;;;;;;;;;;;;19.03;53.22;101183.52;2330151;74;50135;-75
2022/09/20 08:24:06;;;;;;;;;;;;;;;19.04;53.16;101186.55;2345257;75;49928;-76
2022/09/20 08:27:08;;;;;;;;;;;;;;;19.03;53.14;101187.03;2336952;75;51601;-76
2022/09/20 08:30:10;;;;;;;;;;;;;;;19.02;53.12;101195.27;2338276;75;51508;-75
2022/09/20 08:33:12;;;;;;;;;;;;;;;19.04;53.02;101190.58;2296235;76;51628;-76
2022/09/20 08:36:14;;;;;;;;;;;;;;;19.02;53.10;101195.27;2261509;75;50109;-75
2022/09/20 08:39:15;;;;;;;;;;;;;;;19.02;53.09;101190.73;2338533;75;50344;-76
2022/09/20 08:42:19;;;;;;;;;;;;;;;19.03;53.03;101198.27;2358066;75;51512;-75
2022/09/20 08:45:21;;;;;;;;;;;;;;;19.03;53.00;101199.61;2356419;75;51482;-76
2022/09/20 08:48:23;;;;;;;;;;;;;;;19.02;52.99;101203.31;2333114;75;50088;-75
2022/09/20 08:51:29;;;;;;;;;;;;;;;18.98;53.06;101201.46;2358202;75;51481;-76
2022/09/20 08:54:32;;;;;;;;;;;;;;;18.93;53.13;101197.98;2358106;75;22300;-76
2022/09/20 08:57:34;;;;;;;;;;;;;;;18.92;53.18;101209.70;2358365;75;51557;-75
2022/09/20 09:00:36;;;;;;;;;;;;;;;18.93;53.20;101211.39;2333013;75;52686;-76
2022/09/20 09:03:37;;;;;;;;;;;;;;;18.90;53.19;101214.39;2344904;75;50729;-75
2022/09/20 09:06:39;;;;;;;;;;;;;;;18.91;53.23;101217.94;2307540;76;51863;-76
2022/09/20 09:09:41;;;;;;;;;;;;;;;18.91;53.19;101211.23;2326616;76;52305;-75
2022/09/20 09:12:45;;;;;;;;;;;;;;;18.92;53.12;101214.23;2326420;76;50416;-75
2022/09/20 09:15:46;;;;;;;;;;;;;;;18.90;53.11;101211.70;2339775;75;22531;-75
2022/09/20 09:18:51;;;;;;;;;;;;;;;18.92;53.09;101214.23;2337067;75;50780;-75
2022/09/20 09:21:54;;;;;;;;;;;;;;;18.91;53.09;101215.25;2326229;75;50710;-75
2022/09/20 09:25:09;;;;;;;;;;;;;;;18.91;53.09;101213.40;2330284;75;53233;-75
2022/09/20 09:28:12;;;;;;;;;;;;;;;18.92;53.03;101222.27;2354963;75;50365;-75
2022/09/20 09:31:28;;;;;;;;;;;;;;;18.92;52.98;101212.89;2354873;75;50401;-75
2022/09/20 09:34:28;;;;;;;;;;;;;;;18.93;52.94;101220.78;2349113;75;23047;-75
2022/09/20 09:37:30;;;;;;;;;;;;;;;18.93;52.93;101215.41;2321157;76;50124;-75
2022/09/20 09:40:31;;;;;;;;;;;;;;;18.92;52.95;101218.25;2339578;75;51545;-74
2022/09/20 09:43:36;;;;;;;;;;;;;;;18.91;52.91;101210.72;2337611;75;50681;-74
2022/09/20 09:46:38;;;;;;;;;;;;;;;18.92;52.88;101217.73;2338806;74;50666;-76
2022/09/20 09:49:41;;;;;;;;;;;;;;;18.95;53.11;101217.08;2297114;75;52647;-75
2022/09/20 09:52:44;;;;;;;;;;;;;;;18.92;53.08;101222.27;2300910;76;50737;-75
2022/09/20 09:56:04;;;;;;;;;;;;;;;18.91;53.05;101222.78;2328624;75;50677;-75
2022/09/20 09:59:25;;;;;;;;;;;;;;;18.90;53.09;101219.75;2318000;76;51593;-75
2022/09/20 10:02:32;;;;;;;;;;;;;;;18.90;53.05;101214.39;2319847;76;51996;-76
2022/09/20 10:05:38;;;;;;;;;;;;;;;18.90;53.10;101215.73;2336091;76;51636;-75
2022/09/20 10:08:42;;;;;;;;;;;;;;;18.87;53.14;101218.77;2335426;75;50783;-75
2022/09/20 10:11:45;;;;;;;;;;;;;;;18.87;53.14;101214.73;2336867;74;50816;-75
2022/09/20 10:14:48;;;;;;;;;;;;;;;18.88;53.12;101207.05;2332528;75;49673;-76
2022/09/20 10:17:52;;;;;;;;;;;;;;;18.86;53.15;101206.37;2359107;75;50399;-74
2022/09/20 10:20:56;;;;;;;;;;;;;;;18.86;53.11;101207.72;2356532;74;51523;-75
2022/09/20 10:24:08;;;;;;;;;;;;;;;18.89;53.11;101210.05;2357142;75;50340;-77
2022/09/20 10:27:15;;;;;;;;;;;;;;;18.87;53.17;101209.88;2318694;75;49702;-75
2022/09/20 10:30:21;;;;;;;;;;;;;;;18.90;53.11;101211.70;2325011;75;50457;-75
2022/09/20 10:33:24;;;;;;;;;;;;;;;18.90;53.17;101209.02;2345690;75;50767;-75
2022/09/20 10:36:27;;;;;;;;;;;;;;;18.92;53.10;101211.04;2355055;74;50482;-76
2022/09/20 10:39:30;;;;;;;;;;;;;;;18.92;53.10;101209.70;2338196;73;51055;-75
2022/09/20 10:46:13;;;;;;;;;;;;;;;18.96;53.31;101218.26;2360091;75;22589;-76
2022/09/20 10:49:17;;;;;;;;;;;;;;;18.99;53.03;101213.05;2336979;75;50750;-76
2022/09/20 10:52:20;;;;;;;;;;;;;;;19.00;53.15;101230.80;2339008;74;51485;-76
2022/09/20 10:55:26;;;;;;;;;;;;;;;18.99;53.05;101227.80;2334380;74;50880;-76
2022/09/20 10:58:36;;;;;;;;;;;;;;;18.99;53.02;101237.19;2334551;74;50688;-77
2022/09/20 11:01:39;;;;;;;;;;;;;;;18.96;53.02;101250.44;2358383;75;22445;-76
2022/09/20 11:04:53;;;;;;;;;;;;;;;18.95;53.01;101247.41;2360607;75;50743;-75
2022/09/20 11:08:10;;;;;;;;;;;;;;;18.93;53.02;101240.89;2307799;75;51684;-75
2022/09/20 11:11:15;;;;;;;;;;;;;;;18.91;53.06;101245.58;2367201;75;22392;-76
2022/09/20 11:14:20;;;;;;;;;;;;;;;18.92;53.03;101245.90;2377337;75;21775;-76
2022/09/20 11:17:32;;;;;;;;;;;;;;;18.91;53.09;101251.45;2361223;73;52743;-76
2022/09/20 11:20:35;;;;;;;;;;;;;;;18.92;53.07;101251.77;2358773;75;51310;-76
2022/09/20 11:23:42;;;;;;;;;;;;;;;18.93;53.06;101257.45;2359686;73;50665;-76
2022/09/20 11:26:45;;;;;;;;;;;;;;;18.89;53.16;101273.06;2371751;75;51675;-77
2022/09/20 11:29:53;;;;;;;;;;;;;;;18.89;53.13;101293.17;2340932;75;51092;-75
2022/09/20 11:33:03;;;;;;;;;;;;;;;18.86;53.32;101286.81;2373854;75;22378;-75
2022/09/20 11:36:06;;;;;;;;;;;;;;;18.93;53.65;101277.56;2391911;73;50016;-75
2022/09/20 11:39:12;;;;;;;;;;;;;;;18.94;54.30;101289.98;2356421;73;51711;-75
2022/09/20 11:42:15;;;;;;;;;;;;;;;18.97;54.83;101291.49;2350851;73;50357;-75
2022/09/20 11:45:17;;;;;;;;;;;;;;;18.97;55.28;101287.47;2412904;73;50456;-75
2022/09/20 11:48:26;;;;;;;;;;;;;;;18.90;55.24;101283.28;2415885;73;51442;-75
2022/09/20 11:51:41;;;;;;;;;;;;;;;18.92;55.46;101289.31;2415889;73;50795;-75
2022/09/20 11:54:44;;;;;;;;;;;;;;;18.92;55.63;101292.00;2381316;73;49624;-75
2022/09/20 11:57:49;;;;;;;;;;;;;;;18.89;55.49;101285.64;2411301;73;50307;-76
2022/09/20 12:00:53;;;;;;;;;;;;;;;18.89;55.58;101290.48;2386618;73;50433;-75
2022/09/20 12:03:56;;;;;;;;;;;;;;;18.90;55.62;101283.28;2373934;75;50206;-75
2022/09/20 12:06:59;;;;;;;;;;;;;;;18.90;55.84;101288.13;2341165;75;50097;-75
2022/09/20 12:10:03;;;;;;;;;;;;;;;18.91;55.94;101291.67;2373550;75;51514;-75
2022/09/20 12:13:06;;;;;;;;;;;;;;;18.90;56.06;101293.49;2372603;74;51404;-75
2022/09/20 12:16:09;;;;;;;;;;;;;;;18.90;56.07;101291.33;2373512;74;50359;-75
2022/09/20 12:19:12;;;;;;;;;;;;;;;18.90;56.18;101285.45;2356778;75;51786;-75
2022/09/20 12:22:16;;;;;;;;;;;;;;;18.90;56.28;101286.79;2378571;75;50376;-75
2022/09/20 12:25:32;;;;;;;;;;;;;;;18.89;56.24;101286.47;2378286;75;52565;-75
2022/09/20 12:28:40;;;;;;;;;;;;;;;18.93;56.33;101287.81;2377788;75;50653;-75
2022/09/20 12:31:44;;;;;;;;;;;;;;;18.91;56.40;101283.12;2342993;75;52429;-76
2022/09/20 12:34:46;;;;;;;;;;;;;;;18.95;56.40;101285.45;2349547;75;23593;-75
2022/09/20 12:37:49;;;;;;;;;;;;;;;18.93;56.46;101282.45;2333978;75;50521;-75
2022/09/20 12:40:58;;;;;;;;;;;;;;;18.94;56.42;101273.90;2374827;73;50758;-76
2022/09/20 12:44:01;;;;;;;;;;;;;;;18.95;56.45;101277.41;2313710;76;51025;-75
2022/09/20 12:47:05;;;;;;;;;;;;;;;18.95;56.53;101269.37;2347432;75;50065;-75
2022/09/20 12:53:35;;;;;;;;;;;;;;;18.95;56.52;101280.92;2333751;76;23129;-75
2022/09/20 12:56:37;;;;;;;;;;;;;;;18.98;56.61;101285.11;2302174;76;50163;-76
2022/09/20 12:59:39;;;;;;;;;;;;;;;18.93;56.52;101287.81;2345342;75;50686;-76
2022/09/20 13:02:42;;;;;;;;;;;;;;;18.94;56.41;101288.64;2341730;75;51761;-75
2022/09/20 13:05:44;;;;;;;;;;;;;;;18.94;56.56;101295.35;2333274;75;50763;-76
2022/09/20 13:08:51;;;;;;;;;;;;;;;18.93;56.62;101298.55;2277123;76;49691;-75
2022/09/20 13:11:55;;;;;;;;;;;;;;;18.88;56.65;101302.23;2359561;74;50702;-75
2022/09/20 13:14:57;;;;;;;;;;;;;;;18.88;56.73;101306.26;2336047;75;51447;-75
2022/09/20 13:17:59;;;;;;;;;;;;;;;18.89;56.72;101315.13;2363975;74;50234;-76
2022/09/20 13:21:05;;;;;;;;;;;;;;;18.89;56.85;101320.50;2329186;75;50680;-76
2022/09/20 13:24:04;;;;;;;;;;;;;;;18.89;56.93;101330.72;2328935;74;22966;-76
2022/09/20 13:27:07;;;;;;;;;;;;;;;18.87;56.99;101334.06;2340144;75;51625;-76
2022/09/20 13:30:31;;;;;;;;;;;;;;;18.86;56.95;101333.73;2312900;75;51563;-76
2022/09/20 13:33:32;;;;;;;;;;;;;;;18.86;57.01;101340.44;2295794;76;22192;-76
2022/09/20 13:36:34;;;;;;;;;;;;;;;18.86;57.03;101329.72;2327849;75;51492;-75
2022/09/20 13:39:36;;;;;;;;;;;;;;;18.86;57.07;101333.73;2314288;75;50161;-76
2022/09/20 13:42:38;;;;;;;;;;;;;;;18.84;57.06;101329.55;2336112;75;50255;-75
2022/09/20 13:45:41;;;;;;;;;;;;;;;18.85;57.14;101334.72;2288764;76;49840;-75
2022/09/20 13:48:44;;;;;;;;;;;;;;;18.88;57.15;101327.71;2314948;76;51684;-76
2022/09/20 13:51:47;;;;;;;;;;;;;;;18.92;57.13;101331.71;2316091;76;50680;-76
2022/09/20 13:54:48;;;;;;;;;;;;;;;18.91;56.99;101342.12;2328303;74;52032;-76
2022/09/20 13:57:50;;;;;;;;;;;;;;;18.89;57.25;101336.08;2322642;74;50534;-76
2022/09/20 14:00:56;;;;;;;;;;;;;;;18.87;57.60;101337.25;2327647;75;50696;-76
2022/09/20 14:04:00;;;;;;;;;;;;;;;18.83;58.26;101345.28;2323796;75;50701;-77
2022/09/20 14:07:03;;;;;;;;;;;;;;;18.83;58.04;101350.64;2295963;76;50628;-76
2022/09/20 14:10:06;;;;;;;;;;;;;;;18.84;57.95;101346.47;2272709;77;51232;-76
2022/09/20 14:13:08;;;;;;;;;;;;;;;18.84;57.95;101351.00;2296373;76;50758;-76
2022/09/20 14:16:10;;;;;;;;;;;;;;;18.88;58.11;101347.82;2296002;76;52150;-76
2022/09/20 14:19:14;;;;;;;;;;;;;;;18.92;58.27;101346.46;2296485;76;50801;-77
2022/09/20 14:22:17;;;;;;;;;;;;;;;18.92;58.33;101343.78;2272756;77;52614;-77
2022/09/20 14:25:20;;;;;;;;;;;;;;;18.96;59.02;101345.64;2295516;76;50281;-76
2022/09/20 14:28:22;;;;;;;;;;;;;;;18.93;58.21;101341.92;2295494;76;50781;-76
2022/09/20 14:31:24;;;;;;;;;;;;;;;18.93;58.79;101343.27;2280276;76;50697;-77
2022/09/20 14:34:26;;;;;;;;;;;;;;;18.97;58.38;101343.79;2302390;75;51652;-77
2022/09/20 14:37:29;;;;;;;;;;;;;;;18.95;58.98;101345.80;2338417;75;50497;-76
2022/09/20 14:40:32;;;;;;;;;;;;;;;18.91;58.55;101342.63;2359286;74;50775;-77
2022/09/20 14:43:34;;;;;;;;;;;;;;;18.93;58.79;101341.92;2328682;75;50658;-76
2022/09/20 14:46:37;;;;;;;;;;;;;;;18.88;59.39;101337.09;2329756;75;50378;-77
2022/09/20 14:49:40;;;;;;;;;;;;;;;18.90;58.83;101344.95;2307548;76;49576;-77
2022/09/20 14:52:44;;;;;;;;;;;;;;;18.90;59.06;101347.12;2328341;76;50340;-77
2022/09/20 14:55:55;;;;;;;;;;;;;;;18.90;59.23;101345.78;2330180;76;51471;-77
2022/09/20 14:59:05;;;;;;;;;;;;;;;18.91;58.99;101351.50;2330701;75;50306;-76
2022/09/20 15:02:09;;;;;;;;;;;;;;;18.89;59.65;101347.31;2282114;76;50280;-76
2022/09/20 15:05:17;;;;;;;;;;;;;;;18.88;60.39;101355.87;2328711;74;50824;-76
2022/09/20 15:08:19;;;;;;;;;;;;;;;18.88;60.48;101355.87;2344013;75;50042;-77
2022/09/20 15:11:21;;;;;;;;;;;;;;;18.90;59.10;101361.88;2396604;74;51465;-77
2022/09/20 15:14:22;;;;;;;;;;;;;;;18.89;59.46;101364.74;2383845;74;49521;-77
2022/09/20 15:17:24;;;;;;;;;;;;;;;18.90;60.30;101378.47;2407836;74;50629;-77
2022/09/20 15:20:26;;;;;;;;;;;;;;;18.86;59.77;101379.33;2382734;74;52541;-77
2022/09/20 15:23:27;;;;;;;;;;;;;;;18.89;59.39;101384.34;2406691;74;51427;-77
2022/09/20 15:26:32;;;;;;;;;;;;;;;18.82;59.22;101386.52;2354429;74;51532;-77
2022/09/20 15:29:33;;;;;;;;;;;;;;;18.79;59.13;101391.71;2382501;74;22112;-76
2022/09/20 15:32:35;;;;;;;;;;;;;;;18.77;59.53;101387.02;2407400;74;51419;-77
2022/09/20 15:35:38;;;;;;;;;;;;;;;18.76;59.72;101394.73;2407096;74;50811;-76
2022/09/20 15:38:40;;;;;;;;;;;;;;;18.75;59.64;101395.72;2337273;75;51083;-76
2022/09/20 15:41:44;;;;;;;;;;;;;;;18.77;59.68;101388.86;2331106;76;50625;-76
2022/09/20 15:44:45;;;;;;;;;;;;;;;18.77;59.48;101397.73;2333644;75;22835;-76
2022/09/20 15:47:46;;;;;;;;;;;;;;;18.76;59.48;101397.41;2317683;75;51551;-77
2022/09/20 15:50:49;;;;;;;;;;;;;;;18.77;59.46;101404.44;2252458;76;52466;-77
2022/09/20 15:53:55;;;;;;;;;;;;;;;18.78;59.34;101407.95;2339242;75;51500;-77
2022/09/20 15:56:57;;;;;;;;;;;;;;;18.76;59.22;101408.64;2341677;75;49920;-77
2022/09/20 15:59:58;;;;;;;;;;;;;;;18.75;59.42;101405.10;2291979;75;51510;-76
2022/09/20 16:03:01;;;;;;;;;;;;;;;18.72;59.73;101412.94;2289929;76;51646;-77
2022/09/20 16:06:05;;;;;;;;;;;;;;;18.75;59.43;101410.46;2313396;76;50788;-76
2022/09/20 16:09:08;;;;;;;;;;;;;;;18.74;59.62;101403.41;2314031;76;50494;-76